createdAt,value
2023-04-28T10:52:34.735Z,16.73
2023-04-28T10:55:32.624Z,17.33
2023-04-28T10:58:20.425Z,17.92
2023-04-28T11:00:48.018Z,18.18
2023-04-28T11:04:07.107Z,18.24
2023-04-28T11:06:40.042Z,18.48
2023-04-28T11:09:12.233Z,18.65
2023-04-28T11:11:40.087Z,18.32
2023-04-28T11:14:18.400Z,17.94
2023-04-28T11:17:07.068Z,18.32
2023-04-28T11:19:34.790Z,18.71
2023-04-28T11:22:03.519Z,18.74
2023-04-28T11:24:31.510Z,18.74
2023-04-28T11:27:00.170Z,18.44
2023-04-28T11:29:38.073Z,18.86
2023-04-28T11:32:06.724Z,18.81
2023-04-28T11:34:34.425Z,18.87
2023-04-28T11:37:01.306Z,18.82
2023-04-28T11:39:32.908Z,19.12
2023-04-28T11:42:02.221Z,18.97
2023-04-28T11:44:30.718Z,19.35
2023-04-28T11:47:03.059Z,19.62
2023-04-28T11:49:33.532Z,19.37
2023-04-28T11:52:08.513Z,19.74
2023-04-28T11:54:35.564Z,19.63
2023-04-28T11:57:05.319Z,19.78
2023-04-28T11:59:33.887Z,19.71
2023-04-28T12:02:10.718Z,19.85
2023-04-28T12:04:45.759Z,19.74
2023-04-28T12:07:17.217Z,19.85
2023-04-28T12:09:49.408Z,20.27
2023-04-28T12:12:40.165Z,19.67
2023-04-28T12:15:17.039Z,20.08
2023-04-28T12:17:45.601Z,20.11
2023-04-28T12:20:33.030Z,20.36
2023-04-28T12:22:59.575Z,20.13
2023-04-28T12:25:26.758Z,19.95
2023-04-28T12:28:08.318Z,19.91
2023-04-28T12:30:42.491Z,20.10
2023-04-28T12:33:29.799Z,20.12
2023-04-28T12:35:58.017Z,20.22
2023-04-28T12:38:25.382Z,20.51
2023-04-28T12:40:53.085Z,20.14
2023-04-28T12:43:21.070Z,20.23
2023-04-28T12:45:54.111Z,20.26
2023-04-28T12:48:23.641Z,20.32
2023-04-28T12:50:50.356Z,20.41
2023-04-28T12:53:16.876Z,20.43
2023-04-28T12:55:43.680Z,19.88
2023-04-28T12:58:10.229Z,20.38
2023-04-28T13:00:36.764Z,20.40
2023-04-28T13:03:03.562Z,20.19
2023-04-28T13:05:31.584Z,20.44
2023-04-28T13:07:58.131Z,20.70
2023-04-28T13:10:25.129Z,20.46
2023-04-28T13:12:52.179Z,20.70
2023-04-28T13:15:19.207Z,20.91
2023-04-28T13:17:46.446Z,21.07
2023-04-28T13:20:13.100Z,21.34
2023-04-28T13:22:39.945Z,21.32
2023-04-28T13:25:06.962Z,21.40
2023-04-28T13:27:33.608Z,21.63
2023-04-28T13:30:00.587Z,21.28
2023-04-28T13:32:28.065Z,21.54
2023-04-28T13:34:54.788Z,21.04
2023-04-28T13:37:21.406Z,21.41
2023-04-28T13:39:47.922Z,21.95
2023-04-28T13:42:16.088Z,21.73
2023-04-28T13:44:42.798Z,22.39
2023-04-28T13:47:11.074Z,22.62
2023-04-28T13:49:39.563Z,22.92
2023-04-28T13:52:06.265Z,23.06
2023-04-28T13:54:32.967Z,23.21
2023-04-28T13:56:59.546Z,23.37
2023-04-28T13:59:26.445Z,23.36
2023-04-28T14:01:53.062Z,23.48
2023-04-28T14:04:19.868Z,23.15
2023-04-28T14:06:46.610Z,22.45
2023-04-28T14:09:13.609Z,22.71
2023-04-28T14:11:40.381Z,22.77
2023-04-28T14:14:07.054Z,22.65
2023-04-28T14:16:33.705Z,22.68
2023-04-28T14:19:00.451Z,22.76
2023-04-28T14:21:31.161Z,22.87
2023-04-28T14:23:57.989Z,22.96
2023-04-28T14:26:25.570Z,22.94
2023-04-28T14:28:52.395Z,22.82
2023-04-28T14:31:19.711Z,22.87
2023-04-28T14:33:46.602Z,23.03
2023-04-28T14:36:13.147Z,23.14
2023-04-28T14:38:40.429Z,22.76
2023-04-28T14:41:11.529Z,23.07
2023-04-28T14:43:38.144Z,23.15
2023-04-28T14:46:05.746Z,23.11
2023-04-28T14:48:33.118Z,22.84
2023-04-28T14:50:59.710Z,22.73
2023-04-28T14:53:26.371Z,22.77
2023-04-28T14:56:17.217Z,22.63
2023-04-28T14:58:45.185Z,22.63
2023-04-28T15:01:11.773Z,22.50
2023-04-28T15:03:39.449Z,22.28
2023-04-28T15:06:10.302Z,22.42
2023-04-28T15:08:36.981Z,22.41
2023-04-28T15:11:03.553Z,22.30
2023-04-28T15:13:30.364Z,22.25
2023-04-28T15:15:56.949Z,21.38
2023-04-28T15:18:23.849Z,21.28
2023-04-28T15:20:51.445Z,21.52
2023-04-28T15:23:19.924Z,21.50
2023-04-28T15:25:47.780Z,21.71
2023-04-28T15:28:14.325Z,21.65
2023-04-28T15:30:41.194Z,21.61
2023-04-28T15:33:09.331Z,21.61
2023-04-28T15:35:37.523Z,21.52
2023-04-28T15:38:04.128Z,21.54
2023-04-28T15:40:36.551Z,21.59
2023-04-28T15:43:03.369Z,21.05
2023-04-28T15:45:30.004Z,20.82
2023-04-28T15:47:56.634Z,20.91
2023-04-28T15:50:24.083Z,20.85
2023-04-28T15:52:51.156Z,20.78
2023-04-28T15:55:19.705Z,20.73
2023-04-28T15:57:46.896Z,20.70
2023-04-28T16:00:15.459Z,20.82
2023-04-28T16:02:43.573Z,20.80
2023-04-28T16:05:21.035Z,20.72
2023-04-28T16:07:50.121Z,20.70
2023-04-28T16:10:23.237Z,20.69
2023-04-28T16:12:58.313Z,20.41
2023-04-28T16:15:27.936Z,20.39
2023-04-28T16:17:56.846Z,20.41
2023-04-28T16:20:23.540Z,20.48
2023-04-28T16:22:50.078Z,20.31
2023-04-28T16:25:17.177Z,20.49
2023-04-28T16:27:43.761Z,20.55
2023-04-28T16:30:10.657Z,20.47
2023-04-28T16:32:38.257Z,20.37
2023-04-28T16:35:06.367Z,20.32
2023-04-28T16:37:42.032Z,20.37
2023-04-28T16:40:18.869Z,20.34
2023-04-28T16:42:55.670Z,20.38
2023-04-28T16:45:28.578Z,20.38
